Time;durP1;ratioP1;P1;durP2;ratioP2;P2;SDS_P1;SDS_P2;PMS_P1;PMS_P2;Temp;Humidity;BMP_temperature;BMP_pressure;BME280_temperature;BME280_humidity;BME280_pressure;Samples;Min_cycle;Max_cycle;Signal;HPM_P1;HPM_P2
2021/06/03 00:01:51;;;;;;;6.18;5.18;;;15.80;99.90;;;;;;6128319;23;20484;-90
2021/06/03 00:04:21;;;;;;;5.07;3.85;;;15.80;99.90;;;;;;6154105;23;20017;-90
2021/06/03 00:06:48;;;;;;;6.05;3.97;;;16.00;99.90;;;;;;6129038;23;20018;-89
2021/06/03 00:09:15;;;;;;;6.55;3.78;;;16.10;99.90;;;;;;6153697;23;20033;-89
2021/06/03 00:11:45;;;;;;;5.13;3.97;;;16.10;99.90;;;;;;6104751;23;20091;-90
2021/06/03 00:14:19;;;;;;;7.35;4.40;;;16.10;99.90;;;;;;6154573;23;20048;-90
2021/06/03 00:16:51;;;;;;;5.28;4.28;;;16.20;99.90;;;;;;6154807;23;20036;-90
2021/06/03 00:19:39;;;;;;;7.40;3.75;;;16.30;99.90;;;;;;6084585;23;20149;-90
2021/06/03 00:22:07;;;;;;;4.43;3.70;;;16.30;99.90;;;;;;6154969;23;20028;-90
2021/06/03 00:24:34;;;;;;;5.90;4.05;;;16.30;99.90;;;;;;6129016;23;20079;-90
2021/06/03 00:27:14;;;;;;;;;;;;;;;;;;;;;
2021/06/03 00:29:56;;;;;;;8.65;4.45;;;16.20;99.90;;;;;;6154173;23;20076;-89
2021/06/03 00:32:27;;;;;;;6.90;4.30;;;16.20;99.90;;;;;;6129269;23;20109;-90
2021/06/03 00:34:59;;;;;;;5.15;3.83;;;16.20;99.90;;;;;;6153689;23;20048;-89
2021/06/03 00:37:28;;;;;;;6.82;4.10;;;16.20;99.90;;;;;;6154467;23;20025;-90
2021/06/03 00:39:56;;;;;;;7.07;4.20;;;16.20;99.90;;;;;;6154156;23;20477;-89
2021/06/03 00:42:29;;;;;;;4.82;3.88;;;16.20;99.90;;;;;;6153978;23;20033;-89
2021/06/03 00:44:56;;;;;;;5.82;4.32;;;16.20;99.90;;;;;;6128728;23;20049;-89
2021/06/03 00:47:26;;;;;;;6.65;4.43;;;16.20;99.90;;;;;;6153606;23;20049;-89
2021/06/03 00:49:53;;;;;;;5.15;4.30;;;16.10;99.90;;;;;;6154101;23;20025;-89
2021/06/03 00:52:20;;;;;;;5.32;4.18;;;16.00;99.90;;;;;;6154182;23;20029;-90
2021/06/03 00:54:47;;;;;;;4.88;4.00;;;16.00;99.90;;;;;;6104866;23;20417;-89
2021/06/03 00:57:15;;;;;;;5.78;4.32;;;15.90;99.90;;;;;;6128265;23;20751;-90
2021/06/03 00:59:44;;;;;;;6.10;4.05;;;15.80;99.90;;;;;;6129538;23;20051;-90
2021/06/03 01:02:11;;;;;;;7.88;3.90;;;15.80;99.90;;;;;;6154170;23;20025;-90
2021/06/03 01:04:40;;;;;;;6.93;4.82;;;15.70;99.90;;;;;;6157764;23;20037;-92
2021/06/03 01:07:07;;;;;;;10.93;4.93;;;15.70;99.90;;;;;;6103245;23;20021;-90
2021/06/03 01:09:52;;;;;;;5.25;4.65;;;15.60;99.90;;;;;;6107215;23;20109;-89
2021/06/03 01:12:38;;;;;;;6.80;5.28;;;15.60;99.90;;;;;;6129338;23;20013;-91
2021/06/03 01:15:11;;;;;;;10.73;5.47;;;15.50;99.90;;;;;;6153903;23;20384;-90
2021/06/03 01:17:41;;;;;;;6.75;5.00;;;15.40;99.90;;;;;;6127320;23;20087;-90
2021/06/03 01:20:10;;;;;;;8.38;5.35;;;15.20;99.90;;;;;;6127896;23;20314;-91
2021/06/03 01:22:49;;;;;;;7.03;4.90;;;15.20;99.90;;;;;;6128120;23;20155;-90
2021/06/03 01:25:16;;;;;;;7.90;5.50;;;15.20;99.90;;;;;;6153091;23;20087;-89
2021/06/03 01:27:43;;;;;;;8.60;4.97;;;15.20;99.90;;;;;;6127299;23;20018;-91
2021/06/03 01:30:10;;;;;;;10.35;5.43;;;15.20;99.90;;;;;;6128777;23;20049;-92
2021/06/03 01:32:44;;;;;;;7.30;4.85;;;15.20;99.90;;;;;;6137329;23;20021;-90
2021/06/03 01:35:19;;;;;;;7.65;5.05;;;15.20;99.90;;;;;;6170274;23;20029;-90
2021/06/03 01:37:49;;;;;;;7.60;5.03;;;15.30;99.90;;;;;;6142123;23;20317;-89
2021/06/03 01:40:18;;;;;;;6.53;4.70;;;15.30;99.90;;;;;;6155942;23;20105;-90
2021/06/03 01:42:46;;;;;;;7.43;5.40;;;15.30;99.90;;;;;;6153040;23;20128;-91
2021/06/03 01:45:16;;;;;;;6.72;4.93;;;15.30;99.90;;;;;;6128536;23;20032;-90
2021/06/03 01:47:47;;;;;;;8.32;4.80;;;15.30;99.90;;;;;;6127895;23;20021;-91
2021/06/03 01:50:16;;;;;;;8.73;5.00;;;15.20;99.90;;;;;;6153663;23;20072;-90
2021/06/03 01:52:56;;;;;;;8.20;5.18;;;15.20;99.90;;;;;;6153317;23;20018;-89
2021/06/03 01:55:24;;;;;;;6.93;4.60;;;15.20;99.90;;;;;;6153468;23;20096;-91
2021/06/03 01:57:58;;;;;;;5.50;5.00;;;15.20;99.90;;;;;;6127316;23;20026;-90
2021/06/03 02:00:28;;;;;;;8.05;5.63;;;15.10;99.90;;;;;;6128367;23;20022;-90
2021/06/03 02:03:05;;;;;;;6.03;5.22;;;15.00;99.90;;;;;;6152851;23;20033;-90
2021/06/03 02:05:58;;;;;;;7.07;5.50;;;14.90;99.90;;;;;;6128067;23;20048;-90
2021/06/03 02:08:30;;;;;;;6.18;5.25;;;14.90;99.90;;;;;;6153150;23;20025;-90
2021/06/03 02:10:59;;;;;;;8.15;5.25;;;14.90;99.90;;;;;;6153577;23;20120;-88
2021/06/03 02:13:44;;;;;;;6.28;5.22;;;14.90;99.90;;;;;;6128498;23;20096;-91
2021/06/03 02:16:31;;;;;;;8.40;5.03;;;14.90;99.90;;;;;;6128667;23;20033;-88
2021/06/03 02:19:08;;;;;;;7.00;5.43;;;14.90;99.90;;;;;;6153861;23;20444;-89
2021/06/03 02:21:37;;;;;;;8.02;4.88;;;14.90;99.90;;;;;;6154153;23;20018;-90
2021/06/03 02:24:09;;;;;;;6.45;5.30;;;14.90;99.90;;;;;;6153937;23;20031;-89
2021/06/03 02:26:39;;;;;;;6.65;4.78;;;14.90;99.90;;;;;;6126945;23;20049;-89
2021/06/03 02:29:06;;;;;;;5.00;4.55;;;14.80;99.90;;;;;;6152888;23;20067;-89
2021/06/03 02:31:37;;;;;;;6.03;4.68;;;14.80;99.90;;;;;;6152589;23;20491;-88
2021/06/03 02:37:27;;;;;;;5.55;4.82;;;14.80;99.90;;;;;;6018680;23;20047;-89
2021/06/03 02:40:02;;;;;;;9.15;5.40;;;14.80;99.90;;;;;;6034515;23;20043;-89
2021/06/03 02:42:29;;;;;;;7.13;5.13;;;14.80;99.90;;;;;;6034645;23;20106;-91
2021/06/03 02:45:02;;;;;;;5.72;4.70;;;14.80;99.90;;;;;;6034611;23;20026;-89
2021/06/03 02:47:31;;;;;;;5.25;4.72;;;14.80;99.90;;;;;;6033962;23;20019;-88
2021/06/03 02:49:58;;;;;;;6.13;5.53;;;14.90;99.90;;;;;;6010657;23;20032;-88
2021/06/03 02:52:26;;;;;;;5.65;4.80;;;14.90;99.90;;;;;;6034366;23;20381;-88
2021/06/03 02:55:08;;;;;;;5.65;5.05;;;14.80;99.90;;;;;;6033727;23;20155;-88
2021/06/03 02:57:51;;;;;;;5.75;5.15;;;14.90;99.90;;;;;;6032899;23;20087;-89
2021/06/03 03:00:25;;;;;;;5.15;4.65;;;14.90;99.90;;;;;;6034099;23;20139;-90
2021/06/03 03:03:08;;;;;;;7.43;4.90;;;14.90;99.90;;;;;;6000084;23;20091;-89
2021/06/03 03:05:52;;;;;;;5.38;4.78;;;14.90;99.90;;;;;;5978951;24;20032;-88
2021/06/03 03:08:44;;;;;;;11.50;5.10;;;14.90;99.90;;;;;;5975955;24;20093;-89
2021/06/03 03:11:12;;;;;;;8.52;5.45;;;15.00;99.90;;;;;;5954990;24;20080;-89
2021/06/03 03:13:41;;;;;;;8.10;4.97;;;14.90;99.90;;;;;;5986971;23;20096;-90
2021/06/03 03:16:25;;;;;;;8.13;5.20;;;15.00;99.90;;;;;;6043780;23;20301;-89
2021/06/03 03:18:55;;;;;;;5.80;5.15;;;15.00;99.90;;;;;;6064745;23;20034;-89
2021/06/03 03:21:43;;;;;;;5.95;5.13;;;15.10;99.90;;;;;;6084638;23;20066;-90
2021/06/03 03:24:13;;;;;;;6.50;4.82;;;15.10;99.90;;;;;;6065297;23;20042;-88
2021/06/03 03:26:40;;;;;;;7.18;5.03;;;15.10;99.90;;;;;;6092982;23;20044;-88
2021/06/03 03:29:16;;;;;;;6.65;5.07;;;15.20;99.90;;;;;;6093129;23;20450;-89
2021/06/03 03:31:57;;;;;;;7.10;5.22;;;15.10;99.90;;;;;;6006002;23;20047;-90
2021/06/03 03:34:24;;;;;;;7.35;5.25;;;15.20;99.90;;;;;;5984284;23;20043;-90
2021/06/03 03:36:52;;;;;;;8.15;5.20;;;15.20;99.90;;;;;;6007793;23;20130;-88
2021/06/03 03:39:22;;;;;;;6.22;4.95;;;15.20;99.90;;;;;;6005686;23;20031;-88
2021/06/03 03:41:49;;;;;;;5.82;4.78;;;15.20;99.90;;;;;;6065048;23;20105;-88
2021/06/03 03:44:16;;;;;;;6.68;5.38;;;15.20;99.90;;;;;;6064132;23;20097;-89
2021/06/03 03:46:58;;;;;;;7.78;5.30;;;15.10;99.90;;;;;;6017622;23;20098;-90
2021/06/03 03:49:45;;;;;;;6.35;5.07;;;15.10;99.90;;;;;;6018595;23;20030;-89
2021/06/03 03:52:13;;;;;;;8.00;4.90;;;15.10;99.90;;;;;;6064294;23;20114;-90
2021/06/03 03:54:40;;;;;;;5.43;4.88;;;15.10;99.90;;;;;;6064612;23;20018;-89
2021/06/03 03:57:08;;;;;;;6.15;4.97;;;15.10;99.90;;;;;;6063741;23;20640;-89
2021/06/03 04:00:16;;;;;;;6.25;5.50;;;15.00;99.90;;;;;;6063800;23;20109;-88
2021/06/03 04:02:49;;;;;;;6.35;4.95;;;15.10;99.90;;;;;;6076767;23;20369;-90
2021/06/03 04:05:17;;;;;;;6.97;4.78;;;15.00;99.90;;;;;;6153970;23;20146;-88
2021/06/03 04:07:44;;;;;;;7.90;5.18;;;15.10;99.90;;;;;;6104369;23;20084;-89
2021/06/03 04:10:34;;;;;;;8.63;5.53;;;15.10;99.90;;;;;;6080398;23;20025;-88
2021/06/03 04:13:01;;;;;;;6.28;5.07;;;15.10;99.90;;;;;;6104501;23;20044;-89
2021/06/03 04:15:28;;;;;;;5.57;5.03;;;15.10;99.90;;;;;;6129303;23;20053;-90
2021/06/03 04:17:57;;;;;;;6.72;5.60;;;15.10;99.90;;;;;;6103423;23;20088;-87
2021/06/03 04:20:24;;;;;;;7.82;5.03;;;15.10;99.90;;;;;;6104447;23;20049;-89
2021/06/03 04:22:52;;;;;;;5.97;5.20;;;15.10;99.90;;;;;;6128021;23;20029;-88
2021/06/03 04:25:19;;;;;;;7.40;5.55;;;15.20;99.90;;;;;;6104285;23;20033;-88
2021/06/03 04:27:47;;;;;;;6.25;5.68;;;15.20;99.90;;;;;;6153839;23;20485;-91
2021/06/03 04:30:20;;;;;;;7.10;5.00;;;15.30;99.90;;;;;;6154126;23;20030;-88
2021/06/03 04:32:50;;;;;;;8.40;5.20;;;15.30;99.90;;;;;;6128970;23;20017;-89
2021/06/03 04:35:19;;;;;;;6.22;5.05;;;15.40;99.90;;;;;;6154438;23;20022;-89
2021/06/03 04:37:55;;;;;;;6.85;5.15;;;15.50;99.90;;;;;;6129385;23;20451;-89
2021/06/03 04:40:26;;;;;;;5.22;4.45;;;15.60;99.90;;;;;;6130843;23;20022;-88
2021/06/03 04:42:55;;;;;;;5.20;4.70;;;15.70;99.90;;;;;;6155498;23;20060;-88
2021/06/03 04:45:22;;;;;;;9.30;4.97;;;15.80;99.90;;;;;;6156375;23;20378;-89
2021/06/03 04:47:49;;;;;;;5.82;4.90;;;16.00;99.90;;;;;;6153489;23;20040;-91
2021/06/03 04:50:19;;;;;;;5.38;4.88;;;16.10;99.90;;;;;;6128285;23;20405;-88
2021/06/03 04:52:46;;;;;;;6.93;5.57;;;16.20;99.90;;;;;;6128745;23;20424;-88
2021/06/03 04:55:21;;;;;;;7.97;4.80;;;16.30;99.90;;;;;;6128164;23;20054;-88
2021/06/03 04:57:48;;;;;;;7.07;4.40;;;16.40;99.90;;;;;;6153871;23;20041;-90
2021/06/03 05:00:24;;;;;;;6.38;4.43;;;16.50;99.90;;;;;;6104808;23;20049;-90
2021/06/03 05:02:55;;;;;;;7.03;4.45;;;16.60;99.90;;;;;;6128218;23;20053;-89
2021/06/03 05:05:24;;;;;;;6.70;4.45;;;16.60;99.90;;;;;;6154450;23;20104;-89
2021/06/03 05:07:51;;;;;;;8.43;5.10;;;16.70;99.90;;;;;;6128371;23;20457;-89
2021/06/03 05:10:20;;;;;;;8.57;4.53;;;16.70;99.90;;;;;;6153793;23;20018;-88
2021/06/03 05:12:50;;;;;;;6.00;4.63;;;16.80;99.90;;;;;;6153741;23;20096;-91
2021/06/03 05:15:19;;;;;;;6.55;4.82;;;16.90;99.90;;;;;;6154038;23;20036;-88
2021/06/03 05:17:50;;;;;;;6.45;4.70;;;17.00;99.90;;;;;;6153840;23;20052;-88
2021/06/03 05:20:21;;;;;;;7.90;5.28;;;17.00;99.90;;;;;;6129314;23;20037;-89
2021/06/03 05:22:50;;;;;;;8.68;5.57;;;17.10;99.90;;;;;;6153505;23;20096;-87
2021/06/03 05:25:19;;;;;;;8.82;5.25;;;17.10;99.90;;;;;;6152949;23;20450;-89
2021/06/03 05:27:53;;;;;;;7.22;5.40;;;17.10;99.90;;;;;;6153390;23;20100;-90
2021/06/03 05:30:21;;;;;;;6.13;4.55;;;17.20;99.90;;;;;;6154695;23;20021;-88
2021/06/03 05:32:48;;;;;;;7.78;5.20;;;17.20;99.90;;;;;;6152841;23;20289;-90
2021/06/03 05:35:18;;;;;;;6.55;4.40;;;17.30;99.90;;;;;;6153832;23;20037;-89
2021/06/03 05:37:46;;;;;;;4.20;3.72;;;17.50;99.90;;;;;;6127754;23;20433;-89
2021/06/03 05:40:17;;;;;;;5.32;3.90;;;17.60;99.90;;;;;;6104121;23;20026;-89
2021/06/03 05:42:51;;;;;;;7.25;3.85;;;17.70;99.90;;;;;;6127837;23;20084;-89
2021/06/03 05:45:21;;;;;;;4.20;3.80;;;17.80;99.90;;;;;;6154103;23;20374;-89
2021/06/03 05:47:48;;;;;;;4.97;3.42;;;17.90;99.90;;;;;;6127407;23;20026;-89
2021/06/03 05:50:17;;;;;;;4.32;3.92;;;17.90;99.90;;;;;;6153097;23;20021;-87
2021/06/03 05:52:44;;;;;;;6.15;4.30;;;18.10;99.90;;;;;;6127851;23;20024;-88
2021/06/03 05:55:15;;;;;;;12.88;5.07;;;18.20;99.90;;;;;;6127619;23;20096;-90
2021/06/03 05:57:42;;;;;;;6.88;5.32;;;18.30;99.90;;;;;;6127186;23;20057;-89
2021/06/03 06:00:13;;;;;;;9.50;4.80;;;18.40;99.90;;;;;;6127668;23;20350;-89
2021/06/03 06:42:14;;;;;;;6.90;2.50;;;21.90;99.40;;;;;;6115758;23;20060;-92
2021/06/03 06:44:43;;;;;;;5.88;2.42;;;21.80;98.60;;;;;;6129445;23;20663;-92
2021/06/03 06:47:25;;;;;;;4.95;2.22;;;21.50;98.90;;;;;;6155834;23;20032;-92
2021/06/03 06:49:55;;;;;;;4.57;2.10;;;21.20;99.90;;;;;;6126931;23;20096;-94
2021/06/03 06:52:22;;;;;;;6.28;2.10;;;21.00;99.90;;;;;;6128511;23;20499;-91
2021/06/03 06:54:49;;;;;;;3.55;2.13;;;20.90;99.90;;;;;;6155416;23;20024;-91
2021/06/03 06:57:15;;;;;;;4.35;2.42;;;21.00;99.90;;;;;;6104082;23;20530;-91
2021/06/03 06:59:43;;;;;;;5.57;2.30;;;21.00;99.90;;;;;;6154161;23;20048;-92
2021/06/03 07:02:10;;;;;;;2.88;2.17;;;21.30;99.90;;;;;;6104300;23;20113;-90
2021/06/03 07:04:37;;;;;;;3.85;2.30;;;21.70;99.90;;;;;;6151582;23;20022;-92
2021/06/03 07:07:04;;;;;;;5.68;2.30;;;21.80;98.60;;;;;;6103968;23;20089;-90
2021/06/03 07:09:31;;;;;;;4.68;1.90;;;21.60;99.50;;;;;;6152546;23;20053;-90
2021/06/03 07:11:59;;;;;;;6.50;2.13;;;21.60;98.20;;;;;;6152393;23;20017;-90
2021/06/03 07:14:29;;;;;;;5.55;1.83;;;21.90;96.50;;;;;;6126982;23;20024;-90
2021/06/03 07:16:56;;;;;;;4.63;2.10;;;21.70;96.80;;;;;;6126444;23;20334;-89
2021/06/03 07:19:23;;;;;;;5.80;2.00;;;21.90;96.60;;;;;;6103016;23;20021;-91
2021/06/03 07:21:50;;;;;;;2.25;1.75;;;21.90;96.10;;;;;;6152746;23;20021;-90
2021/06/03 07:24:17;;;;;;;4.60;2.00;;;21.90;95.70;;;;;;6125934;23;20021;-91
2021/06/03 07:26:44;;;;;;;2.85;1.92;;;22.20;95.80;;;;;;6153093;23;20025;-92
2021/06/03 07:29:11;;;;;;;4.20;2.13;;;22.80;94.20;;;;;;6103506;23;20032;-93
2021/06/03 07:31:42;;;;;;;3.47;1.65;;;22.60;92.30;;;;;;6103991;23;20022;-90
2021/06/03 07:34:09;;;;;;;4.22;2.08;;;22.50;90.60;;;;;;6153479;23;20018;-89
2021/06/03 07:36:36;;;;;;;4.53;2.20;;;22.50;91.20;;;;;;6152808;23;20017;-89
2021/06/03 07:39:07;;;;;;;2.63;2.17;;;22.60;90.60;;;;;;6128368;23;20365;-92
2021/06/03 07:41:49;;;;;;;3.72;1.88;;;22.90;90.20;;;;;;6151341;23;20022;-91
2021/06/03 07:44:18;;;;;;;4.50;2.05;;;23.20;87.80;;;;;;6127313;23;20026;-90
2021/06/03 07:46:45;;;;;;;5.70;2.38;;;23.30;86.40;;;;;;6152661;23;20094;-91
2021/06/03 07:49:16;;;;;;;3.30;1.58;;;23.70;83.40;;;;;;6124257;23;20320;-91
2021/06/03 07:51:43;;;;;;;4.53;1.75;;;23.50;81.20;;;;;;6129116;23;20030;-91
2021/06/03 07:54:10;;;;;;;3.22;1.73;;;23.40;82.50;;;;;;6154185;23;20022;-92
2021/06/03 07:56:40;;;;;;;2.88;1.70;;;23.50;82.40;;;;;;6153431;23;20021;-92
2021/06/03 07:59:07;;;;;;;3.25;1.77;;;23.60;82.70;;;;;;6153882;23;20029;-92
2021/06/03 08:01:34;;;;;;;4.45;2.05;;;23.70;80.70;;;;;;6128261;23;20021;-91
2021/06/03 08:04:01;;;;;;;5.65;1.88;;;23.50;81.50;;;;;;6129845;23;20289;-91
2021/06/03 08:06:28;;;;;;;2.20;1.70;;;23.70;80.70;;;;;;6129957;23;20076;-91
2021/06/03 08:09:01;;;;;;;3.13;1.85;;;23.80;78.00;;;;;;6130095;23;20021;-93
2021/06/03 08:11:31;;;;;;;4.25;2.03;;;23.80;77.10;;;;;;6155912;23;20041;-90
2021/06/03 08:14:01;;;;;;;;;;;24.30;78.40;;;;;;6130430;23;20013;-91
2021/06/03 08:16:30;;;;;;;4.40;1.90;;;24.30;75.40;;;;;;6155942;23;19951;-93
2021/06/03 08:19:13;;;;;;;3.83;2.15;;;24.10;75.60;;;;;;6156765;23;20109;-91
2021/06/03 08:21:51;;;;;;;4.65;1.80;;;24.00;74.50;;;;;;6137946;23;20022;-92
2021/06/03 08:24:35;;;;;;;3.75;1.77;;;23.70;75.40;;;;;;6157344;23;20029;-91
2021/06/03 08:27:03;;;;;;;3.20;1.70;;;23.70;77.50;;;;;;6161282;23;20361;-93
2021/06/03 08:29:30;;;;;;;2.10;1.80;;;24.00;74.60;;;;;;6154721;23;20036;-89
2021/06/03 08:35:47;;;;;;;3.35;1.50;;;24.30;73.90;;;;;;5983517;24;20032;-92
2021/06/03 08:38:24;;;;;;;4.53;1.70;;;24.20;73.20;;;;;;5990860;23;20443;-88
2021/06/03 08:41:19;;;;;;;2.40;2.10;;;24.30;72.70;;;;;;6063488;23;20023;-91
2021/06/03 08:43:46;;;;;;;;;;;24.50;72.30;;;;;;6043342;23;20027;-91
2021/06/03 08:46:32;;;;;;;;;;;;;;;;;;;;;
2021/06/03 08:49:04;;;;;;;3.60;1.80;;;25.80;69.40;;;;;;6044538;23;20159;-91
2021/06/03 08:51:54;;;;;;;3.53;1.52;;;25.70;66.50;;;;;;6064864;23;20041;-91
2021/06/03 08:54:44;;;;;;;2.63;1.30;;;25.70;65.80;;;;;;6127795;23;20024;-94
2021/06/03 08:57:43;;;;;;;2.80;2.00;;;25.80;64.90;;;;;;6130886;23;20014;-93
2021/06/03 09:00:27;;;;;;;2.63;1.50;;;25.70;65.00;;;;;;6128983;23;20063;-91
2021/06/03 09:02:54;;;;;;;1.67;1.40;;;25.50;66.10;;;;;;6132496;23;20637;-89
2021/06/03 09:05:24;;;;;;;3.53;1.70;;;25.70;65.70;;;;;;6154588;23;20021;-91
2021/06/03 09:07:51;;;;;;;2.17;1.63;;;25.70;63.70;;;;;;6127341;23;20030;-89
2021/06/03 09:10:34;;;;;;;2.47;1.60;;;25.70;64.70;;;;;;6126837;23;20414;-93
2021/06/03 09:13:13;;;;;;;3.70;1.45;;;25.90;64.80;;;;;;6154112;23;20085;-92
2021/06/03 09:15:51;;;;;;;4.03;1.90;;;26.10;63.50;;;;;;6153898;23;20022;-91
2021/06/03 09:18:34;;;;;;;2.20;1.67;;;26.20;63.20;;;;;;6129459;23;20024;-91
2021/06/03 09:21:24;;;;;;;2.72;1.75;;;26.30;62.60;;;;;;6128539;23;20278;-91
2021/06/03 09:24:19;;;;;;;3.30;1.52;;;26.60;62.20;;;;;;6154457;23;20041;-92
2021/06/03 09:26:55;;;;;;;1.75;1.30;;;27.20;60.70;;;;;;6154302;23;20034;-91
2021/06/03 09:29:36;;;;;;;5.15;2.03;;;27.10;59.50;;;;;;6153950;23;20060;-91
2021/06/03 09:32:31;;;;;;;6.60;1.90;;;27.30;62.60;;;;;;6134899;23;20089;-92
2021/06/03 09:35:32;;;;;;;3.08;1.70;;;27.80;58.30;;;;;;6128797;23;20021;-91
2021/06/03 09:38:25;;;;;;;3.80;1.55;;;27.80;58.40;;;;;;6086675;23;20080;-93
2021/06/03 09:40:52;;;;;;;4.47;1.70;;;28.00;58.10;;;;;;6154230;23;20083;-91
2021/06/03 09:43:38;;;;;;;3.63;1.70;;;28.10;56.70;;;;;;6128338;23;20026;-93
2021/06/03 09:46:18;;;;;;;3.55;1.90;;;28.30;56.60;;;;;;6154511;23;20036;-93
2021/06/03 09:48:54;;;;;;;1.98;1.50;;;28.10;57.40;;;;;;6153867;23;20026;-93
2021/06/03 09:59:16;;;;;;;3.45;1.42;;;30.60;51.50;;;;;;6112218;23;20080;-91
2021/06/03 10:05:30;;;;;;;2.72;1.60;;;30.70;49.70;;;;;;6092197;23;20633;-92
2021/06/03 10:26:29;;;;;;;2.08;1.25;;;31.00;46.10;;;;;;6159151;22;20087;-93
2021/06/03 10:29:04;;;;;;;2.30;1.25;;;30.50;46.90;;;;;;6134637;23;20029;-92
2021/06/03 10:31:45;;;;;;;4.22;1.80;;;30.40;48.30;;;;;;6106954;23;20017;-94
2021/06/03 10:34:21;;;;;;;;;;;30.90;46.00;;;;;;6111651;23;20032;-93
2021/06/03 10:37:49;;;;;;;2.42;1.35;;;31.10;45.00;;;;;;6164172;23;20027;-93
2021/06/03 10:45:33;;;;;;;;;;;;;;;;;;;;;
2021/06/03 10:56:21;;;;;;;5.82;2.00;;;28.80;51.20;;;;;;5957021;23;20086;-93
2021/06/03 10:58:52;;;;;;;4.50;1.63;;;28.00;53.60;;;;;;6091622;23;20029;-91
2021/06/03 11:01:21;;;;;;;3.70;1.60;;;28.80;51.70;;;;;;6155182;23;20037;-91
2021/06/03 11:05:02;;;;;;;;;;;;;;;;;;;;;
2021/06/03 11:07:54;;;;;;;6.68;1.90;;;28.20;53.20;;;;;;5999418;23;20110;-92
2021/06/03 11:11:18;;;;;;;4.25;1.75;;;27.90;58.00;;;;;;6008275;23;20015;-92
2021/06/03 11:13:51;;;;;;;4.38;2.22;;;27.40;61.00;;;;;;5981548;23;20031;-92
2021/06/03 11:17:02;;;;;;;4.15;1.80;;;27.10;62.00;;;;;;5959520;23;20487;-91
2021/06/03 11:20:09;;;;;;;;;;;;;;;;;;;;;
2021/06/03 11:22:54;;;;;;;3.40;1.92;;;26.80;64.00;;;;;;6160069;23;20029;-91
2021/06/03 11:25:47;;;;;;;;;;;;;;;;;;;;;
2021/06/03 11:28:22;;;;;;;2.92;1.80;;;26.80;64.00;;;;;;6154119;23;20049;-91
2021/06/03 11:31:16;;;;;;;8.02;2.17;;;26.70;65.90;;;;;;6132790;23;20124;-94
2021/06/03 11:38:01;;;;;;;3.33;2.05;;;26.80;67.50;;;;;;6047642;23;20273;-93
2021/06/03 11:41:03;;;;;;;2.97;1.75;;;27.00;68.70;;;;;;6039985;23;20037;-92
2021/06/03 11:44:11;;;;;;;3.25;2.00;;;27.70;63.90;;;;;;6132024;23;20033;-91
2021/06/03 11:47:25;;;;;;;5.03;2.42;;;28.40;63.90;;;;;;6133267;23;20017;-91
2021/06/03 11:54:37;;;;;;;6.07;1.70;;;30.30;58.90;;;;;;6067024;23;20032;-93
2021/06/03 12:01:03;;;;;;;3.75;1.88;;;34.10;49.50;;;;;;6118620;23;20093;-91
2021/06/03 12:03:33;;;;;;;5.18;1.80;;;33.40;47.90;;;;;;6156145;23;20029;-91
2021/06/03 12:06:06;;;;;;;3.08;1.38;;;31.30;49.10;;;;;;6129650;23;20101;-91
2021/06/03 12:08:42;;;;;;;2.42;1.10;;;29.70;51.30;;;;;;6158268;23;20037;-92
2021/06/03 12:11:18;;;;;;;2.08;1.58;;;28.20;54.00;;;;;;6155121;23;20068;-92
2021/06/03 12:14:06;;;;;;;3.63;1.50;;;27.60;56.00;;;;;;6160349;23;20017;-92
2021/06/03 12:16:50;;;;;;;1.73;1.25;;;27.40;57.40;;;;;;6165626;23;20040;-93
2021/06/03 12:19:41;;;;;;;6.68;1.52;;;27.70;60.80;;;;;;6160941;23;20968;-90
2021/06/03 12:22:26;;;;;;;2.17;1.35;;;28.30;62.70;;;;;;6125580;23;20017;-92
2021/06/03 12:24:58;;;;;;;3.63;1.40;;;28.70;58.40;;;;;;6154753;23;20744;-92
2021/06/03 12:27:43;;;;;;;4.25;1.30;;;28.90;59.30;;;;;;6154801;23;20092;-93
2021/06/03 12:30:33;;;;;;;;;;;;;;;;;;;;;
2021/06/03 12:33:29;;;;;;;3.83;1.30;;;28.70;55.30;;;;;;6146641;23;20325;-92
2021/06/03 12:36:25;;;;;;;1.92;1.30;;;28.20;59.90;;;;;;6128077;23;20040;-92
2021/06/03 12:39:02;;;;;;;3.33;1.35;;;28.30;60.10;;;;;;6130455;23;20068;-92
2021/06/03 12:41:53;;;;;;;2.38;1.35;;;28.20;64.30;;;;;;6106165;23;20052;-91
2021/06/03 12:44:30;;;;;;;1.95;1.30;;;28.20;62.50;;;;;;6123940;23;20025;-93
2021/06/03 12:50:13;;;;;;;1.10;0.80;;;28.40;58.60;;;;;;6080894;23;20045;-91
2021/06/03 12:53:19;;;;;;;;;;;;;;;;;;;;;
2021/06/03 12:55:55;;;;;;;;;;;30.10;52.70;;;;;;6036608;23;20066;-91
2021/06/03 12:58:44;;;;;;;;;;;31.30;50.40;;;;;;6042220;23;19954;-93
2021/06/03 13:04:53;;;;;;;5.95;1.75;;;30.50;51.60;;;;;;5881499;24;20029;-92
2021/06/03 13:07:29;;;;;;;2.78;1.60;;;30.10;55.00;;;;;;5901599;24;20545;-93
2021/06/03 13:18:09;;;;;;;3.95;1.50;;;29.10;54.10;;;;;;6005774;23;20047;-93
2021/06/03 13:21:05;;;;;;;;;;;;;;;;;;;;;
2021/06/03 13:26:57;;;;;;;3.60;1.67;;;28.60;54.60;;;;;;6129479;23;19956;-92
2021/06/03 13:29:37;;;;;;;3.47;1.92;;;27.20;59.00;;;;;;6132014;23;20519;-91
2021/06/03 13:35:08;;;;;;;5.55;2.17;;;26.60;64.40;;;;;;6067301;23;20018;-90
2021/06/03 13:37:43;;;;;;;4.13;1.63;;;26.90;64.80;;;;;;6128970;23;20117;-94
2021/06/03 13:40:27;;;;;;;3.13;1.30;;;27.30;65.10;;;;;;6130813;23;20032;-91
2021/06/03 13:43:08;;;;;;;2.45;1.23;;;27.50;59.50;;;;;;6154723;23;20052;-91
2021/06/03 13:45:47;;;;;;;2.50;1.27;;;26.90;62.20;;;;;;6127385;23;20036;-92
2021/06/03 13:48:25;;;;;;;4.13;1.40;;;26.20;63.80;;;;;;6153427;23;20037;-90
2021/06/03 13:51:01;;;;;;;2.38;1.40;;;25.50;68.40;;;;;;6128284;23;20040;-91
2021/06/03 13:56:28;;;;;;;3.33;1.65;;;24.10;75.40;;;;;;6151647;23;20021;-93
2021/06/03 13:59:01;;;;;;;3.67;2.03;;;23.90;75.90;;;;;;6152667;23;20017;-92
2021/06/03 14:01:40;;;;;;;;;;;23.70;77.40;;;;;;6127817;23;20022;-92
2021/06/03 14:04:16;;;;;;;2.42;1.83;;;24.30;77.30;;;;;;6152850;23;19967;-93
2021/06/03 14:06:52;;;;;;;2.90;1.77;;;25.40;73.20;;;;;;6152327;23;20594;-91
2021/06/03 14:09:22;;;;;;;2.47;1.70;;;26.20;70.50;;;;;;6128595;23;20022;-95
2021/06/03 14:15:12;;;;;;;1.88;1.30;;;28.30;60.70;;;;;;6129122;23;20053;-91
2021/06/03 14:17:40;;;;;;;3.10;1.48;;;29.20;57.50;;;;;;6127406;23;20068;-92
2021/06/03 14:20:22;;;;;;;1.80;1.23;;;29.60;54.70;;;;;;6152959;23;20655;-91
2021/06/03 14:22:54;;;;;;;3.20;1.50;;;29.40;53.00;;;;;;6153151;23;20441;-91
2021/06/03 14:25:37;;;;;;;1.35;1.10;;;30.00;52.70;;;;;;6152654;23;20417;-92
2021/06/03 14:28:21;;;;;;;1.85;1.60;;;30.50;50.10;;;;;;6070413;23;20037;-91
2021/06/03 14:31:11;;;;;;;2.30;1.50;;;29.50;52.10;;;;;;6092217;23;20109;-93
2021/06/03 14:33:48;;;;;;;2.15;1.52;;;27.60;55.10;;;;;;6071600;23;20042;-92
2021/06/03 14:36:17;;;;;;;2.53;1.75;;;26.20;60.60;;;;;;6071737;23;20018;-91
2021/06/03 14:38:48;;;;;;;2.08;1.83;;;25.50;63.50;;;;;;6093393;23;20105;-93
2021/06/03 14:41:18;;;;;;;3.42;1.90;;;25.10;66.10;;;;;;6095854;23;20030;-91
2021/06/03 14:43:46;;;;;;;6.90;2.00;;;24.70;68.50;;;;;;6075151;23;20094;-92
2021/06/03 14:46:18;;;;;;;3.40;1.90;;;24.40;71.90;;;;;;6094179;23;20049;-90
2021/06/03 14:48:58;;;;;;;2.85;2.22;;;23.80;76.10;;;;;;6092873;23;20057;-90
2021/06/03 14:51:33;;;;;;;4.07;2.13;;;23.10;83.10;;;;;;6048370;23;20023;-93
2021/06/03 14:54:07;;;;;;;3.53;1.88;;;22.70;88.60;;;;;;6069977;23;20664;-91
2021/06/03 14:56:57;;;;;;;5.30;1.80;;;22.30;92.20;;;;;;6062707;23;20045;-89
2021/06/03 14:59:24;;;;;;;3.17;1.73;;;22.10;94.50;;;;;;6069738;23;20018;-92
2021/06/03 15:01:54;;;;;;;4.15;2.13;;;22.00;94.80;;;;;;6070310;23;20037;-91
2021/06/03 15:04:25;;;;;;;2.35;1.77;;;22.00;94.10;;;;;;6071339;23;20091;-92
2021/06/03 15:06:55;;;;;;;2.58;1.65;;;21.90;93.00;;;;;;6094129;23;20435;-91
2021/06/03 15:09:27;;;;;;;3.17;1.48;;;21.90;91.10;;;;;;6071253;23;20385;-91
2021/06/03 15:11:54;;;;;;;3.30;1.60;;;21.80;90.50;;;;;;6069851;23;20641;-93
2021/06/03 15:14:26;;;;;;;3.42;1.35;;;21.70;91.00;;;;;;6094296;23;20070;-91
2021/06/03 15:16:59;;;;;;;1.27;1.13;;;21.70;85.60;;;;;;6094205;23;20332;-92
2021/06/03 15:19:26;;;;;;;4.65;1.08;;;21.80;82.20;;;;;;6070269;23;20097;-89
2021/06/03 15:21:55;;;;;;;1.95;1.25;;;21.90;81.80;;;;;;6069456;23;20057;-91
2021/06/03 15:24:28;;;;;;;1.10;1.00;;;21.90;78.40;;;;;;6085503;23;20195;-91
2021/06/03 15:26:55;;;;;;;1.33;1.00;;;22.00;78.00;;;;;;6105801;23;20028;-94
2021/06/03 15:29:27;;;;;;;1.38;1.27;;;22.00;74.90;;;;;;6154444;23;20021;-93
2021/06/03 15:32:03;;;;;;;2.13;1.25;;;22.00;78.50;;;;;;6130336;23;20028;-91
2021/06/03 15:34:37;;;;;;;1.85;1.63;;;22.00;78.90;;;;;;6130748;23;20017;-92
2021/06/03 15:37:08;;;;;;;1.92;1.30;;;22.00;81.60;;;;;;6155362;23;20021;-93
2021/06/03 15:39:38;;;;;;;3.13;1.80;;;21.90;78.90;;;;;;6155083;23;20082;-91
2021/06/03 15:42:10;;;;;;;2.17;1.38;;;21.80;80.20;;;;;;6155698;23;20040;-92
2021/06/03 15:44:39;;;;;;;1.70;1.25;;;21.80;80.00;;;;;;6131195;23;20112;-91
2021/06/03 15:47:11;;;;;;;;;;;21.70;80.80;;;;;;6108995;23;20041;-92
2021/06/03 15:49:45;;;;;;;3.20;1.30;;;21.70;81.50;;;;;;6157917;23;19944;-93